Terminal Aerodrome Forecast
Issued by NWS

Home | Current Version | Previous Version | Text Only | Print | Product List | Glossary On
Versions: 1 2 3 4 5 6 7 8 9 10 11 12 13
000
FTUS45 KABQ 170633 RRA
TAFSAF
TAF
KSAF 170633Z 1707/1806 VRB06KT P6SM FEW100
     FM171900 22010KT P6SM FEW120
     FM180200 VRB05KT P6SM FEW120=

USA.gov is the U.S. government's official web portal to all federal, state and local government web resources and services.